Nebraska, Indiana
Current Conditions -  °F | °C
As of 6:45 AM on Friday 24 Oct 2014 (Local Time) from KBAK Reporting Station
Haze Haze  
Wind Chill: 36°   Ceiling: 1000
Heat Index: 36°   Visibility: 5mi
Dew Point: 36°   Wind: 0mph
Humidity: 100%   Direction: NA
Pressure: 30.13"   Gusts: NA
Location:  39.06°N, 85.46°W
Report Text: KBAK 241045Z 00000KT 5SM BR BKN010 02/02 A3013
Loading
Personal Weather Stations






























Interactive Weather Map
Tropical Storm Tracking
New forecast layout! Learn more

10-Day Weather Forecast

Advertisements
Track Severe Weather on mobile